createdAt,value
2023-01-02T00:01:48.456Z,100947.78
2023-01-02T00:04:16.821Z,100953.03
2023-01-02T00:06:45.129Z,100948.56
2023-01-02T00:09:13.596Z,100962.69
2023-01-02T00:11:41.952Z,100968.78
2023-01-02T00:14:10.260Z,100976.78
2023-01-02T00:16:38.860Z,100971.53
2023-01-02T00:19:09.614Z,100979.59
2023-01-02T00:21:38.063Z,100982.34
2023-01-02T00:24:06.906Z,100994.78
2023-01-02T00:26:35.326Z,100984.31
2023-01-02T00:29:04.291Z,100977.38
2023-01-02T00:31:32.782Z,100977.59
2023-01-02T00:34:01.277Z,100976.91
2023-01-02T00:36:29.898Z,100975.38
2023-01-02T00:38:58.574Z,100963.97
2023-01-02T00:41:27.058Z,100971.19
2023-01-02T00:43:55.532Z,100976.69
2023-01-02T00:46:24.349Z,100976.84
2023-01-02T00:48:52.811Z,100978.81
2023-01-02T00:51:21.152Z,100986.06
2023-01-02T00:53:49.481Z,100987.91
2023-01-02T00:56:17.954Z,100983.53
2023-01-02T00:58:46.396Z,100987.16
2023-01-02T01:01:14.870Z,100989.94
2023-01-02T01:03:44.491Z,100995.38
2023-01-02T01:06:13.882Z,100990.13
2023-01-02T01:08:42.738Z,100984.03
2023-01-02T01:11:16.959Z,100981.53
2023-01-02T01:13:46.397Z,100991.41
2023-01-02T01:16:18.096Z,101004.88
2023-01-02T01:18:47.587Z,101004.06
2023-01-02T01:21:21.616Z,101003.31
2023-01-02T01:23:55.057Z,101017.56
2023-01-02T01:26:24.172Z,101023.88
2023-01-02T01:28:56.499Z,101025.59
2023-01-02T01:31:25.654Z,101039.84
2023-01-02T01:33:54.412Z,101044.38
2023-01-02T01:36:25.262Z,101046.25
2023-01-02T01:38:53.712Z,101054.38
2023-01-02T01:41:24.730Z,101054.47
2023-01-02T01:43:55.707Z,101063.38
2023-01-02T01:46:31.013Z,101074.94
2023-01-02T01:49:26.099Z,101071.59
2023-01-02T01:52:00.641Z,101084.28
2023-01-02T01:54:39.701Z,101093.25
2023-01-02T01:57:48.333Z,101094.41
2023-01-02T02:00:17.287Z,101084.88
2023-01-02T02:02:49.839Z,101085.00
2023-01-02T02:05:22.553Z,101087.00
2023-01-02T02:08:04.998Z,101083.69
2023-01-02T02:10:33.608Z,101093.53
2023-01-02T02:13:01.976Z,101090.94
2023-01-02T02:15:43.794Z,101095.53
2023-01-02T02:18:49.127Z,101099.25
2023-01-02T02:21:45.935Z,101094.94
2023-01-02T02:24:38.673Z,101103.91
2023-01-02T02:27:18.878Z,101105.81
2023-01-02T02:30:14.899Z,101099.66
2023-01-02T02:33:20.115Z,101114.81
2023-01-02T02:35:57.113Z,101113.22
2023-01-02T02:38:46.252Z,101116.84
2023-01-02T02:41:46.177Z,101124.00
2023-01-02T02:44:50.071Z,101121.63
2023-01-02T02:47:58.675Z,101122.78
2023-01-02T02:50:49.929Z,101123.97
2023-01-02T02:53:31.376Z,101124.28
2023-01-02T02:56:03.532Z,101130.75
2023-01-02T02:58:34.441Z,101120.38
2023-01-02T03:01:08.732Z,101117.06
2023-01-02T03:03:37.253Z,101119.88
2023-01-02T03:06:19.849Z,101116.53
2023-01-02T03:08:58.890Z,101114.97
2023-01-02T03:11:50.511Z,101109.91
2023-01-02T03:14:30.091Z,101112.72
2023-01-02T03:17:05.339Z,101118.13
2023-01-02T03:19:46.374Z,101119.03
2023-01-02T03:22:23.177Z,101123.56
2023-01-02T03:24:55.379Z,101125.47
2023-01-02T03:27:30.738Z,101129.19
2023-01-02T03:30:09.134Z,101129.41
2023-01-02T03:33:11.043Z,101128.63
2023-01-02T03:35:46.129Z,101140.28
2023-01-02T03:38:23.976Z,101146.59
2023-01-02T03:41:08.249Z,101153.84
2023-01-02T03:43:40.820Z,101155.78
2023-01-02T03:46:42.733Z,101147.13
2023-01-02T03:49:22.904Z,101160.44
2023-01-02T03:51:52.435Z,101140.13
2023-01-02T03:54:21.621Z,101148.84
2023-01-02T03:57:10.558Z,101145.25
2023-01-02T03:59:50.584Z,101134.50
2023-01-02T04:02:28.718Z,101140.69
2023-01-02T04:05:08.827Z,101145.09
2023-01-02T04:08:12.273Z,101146.88
2023-01-02T04:10:42.259Z,101151.31
2023-01-02T04:13:17.918Z,101162.03
2023-01-02T04:15:48.647Z,101155.97
2023-01-02T04:18:25.055Z,101150.81
2023-01-02T04:20:57.457Z,101131.59
2023-01-02T04:23:48.159Z,101134.44
2023-01-02T04:26:23.215Z,101130.16
2023-01-02T04:28:51.850Z,101136.44
2023-01-02T04:31:49.460Z,101136.66
2023-01-02T04:34:20.309Z,101143.84
2023-01-02T04:36:48.817Z,101141.31
2023-01-02T04:39:18.674Z,101145.84
2023-01-02T04:41:47.054Z,101145.06
2023-01-02T04:44:15.376Z,101152.19
2023-01-02T04:46:43.886Z,101154.00
2023-01-02T04:49:12.328Z,101157.63
2023-01-02T04:51:40.754Z,101154.19
2023-01-02T04:54:13.248Z,101157.75
2023-01-02T04:56:41.730Z,101174.53
2023-01-02T04:59:10.233Z,101177.97
2023-01-02T05:01:38.722Z,101171.84
2023-01-02T05:04:07.214Z,101186.84
2023-01-02T05:06:35.659Z,101185.09
2023-01-02T05:09:04.196Z,101194.78
2023-01-02T05:11:32.797Z,101191.19
2023-01-02T05:14:06.963Z,101183.34
2023-01-02T05:16:35.534Z,101175.47
2023-01-02T05:19:04.015Z,101175.50
2023-01-02T05:21:50.728Z,101178.19
2023-01-02T05:24:19.052Z,101184.41
2023-01-02T05:26:47.479Z,101175.59
2023-01-02T05:29:15.890Z,101177.38
2023-01-02T05:31:44.365Z,101172.13
2023-01-02T05:34:16.172Z,101166.88
2023-01-02T05:36:44.924Z,101174.88
2023-01-02T05:39:15.379Z,101174.94
2023-01-02T05:41:44.493Z,101168.81
2023-01-02T05:44:13.283Z,101175.94
2023-01-02T05:46:41.828Z,101177.78
2023-01-02T05:49:11.355Z,101189.25
2023-01-02T05:51:40.156Z,101199.88
2023-01-02T05:54:09.215Z,101198.13
2023-01-02T05:56:37.622Z,101197.31
2023-01-02T05:59:09.292Z,101193.81
2023-01-02T06:01:38.093Z,101193.03
2023-01-02T06:04:06.735Z,101183.38
2023-01-02T06:06:37.575Z,101178.13
2023-01-02T06:09:07.535Z,101173.75
2023-01-02T06:11:37.560Z,101177.28
2023-01-02T06:14:05.962Z,101172.88
2023-01-02T06:16:34.486Z,101165.81
2023-01-02T06:19:02.847Z,101170.19
2023-01-02T06:21:31.355Z,101162.28
2023-01-02T06:24:00.191Z,101168.38
2023-01-02T06:26:35.004Z,101161.31
2023-01-02T06:29:05.135Z,101159.50
2023-01-02T06:31:34.466Z,101164.78
2023-01-02T06:34:04.968Z,101166.59
2023-01-02T06:36:35.496Z,101178.09
2023-01-02T06:39:03.999Z,101186.06
2023-01-02T06:41:32.669Z,101176.47
2023-01-02T06:44:01.127Z,101177.28
2023-01-02T06:46:29.598Z,101173.78
2023-01-02T06:48:57.942Z,101181.72
2023-01-02T06:51:26.515Z,101169.50
2023-01-02T06:53:55.061Z,101163.38
2023-01-02T06:56:23.681Z,101157.31
2023-01-02T06:58:52.121Z,101161.78
2023-01-02T07:01:23.787Z,101153.88
2023-01-02T07:03:52.335Z,101155.72
2023-01-02T07:06:23.212Z,101159.25
2023-01-02T07:08:51.698Z,101168.94
2023-01-02T07:11:23.174Z,101171.59
2023-01-02T07:13:54.118Z,101157.47
2023-01-02T07:16:24.226Z,101157.44
2023-01-02T07:18:56.157Z,101159.16
2023-01-02T07:21:24.960Z,101160.94
2023-01-02T07:23:53.434Z,101165.31
2023-01-02T07:26:23.064Z,101176.75
2023-01-02T07:28:51.387Z,101168.91
2023-01-02T07:31:21.199Z,101168.97
2023-01-02T07:33:50.575Z,101163.75
2023-01-02T07:36:23.064Z,101148.00
2023-01-02T07:38:56.191Z,101138.34
2023-01-02T07:41:27.227Z,101133.09
2023-01-02T07:43:59.545Z,101155.00
2023-01-02T07:46:28.058Z,101167.28
2023-01-02T07:48:56.349Z,101190.19
2023-01-02T07:51:27.230Z,101185.78
2023-01-02T07:53:56.819Z,101181.41
2023-01-02T07:56:26.155Z,101183.22
2023-01-02T07:58:54.599Z,101185.00
2023-01-02T08:01:23.330Z,101197.34
2023-01-02T08:03:51.905Z,101195.66
2023-01-02T08:06:20.699Z,101193.06
2023-01-02T08:08:49.291Z,101193.97
2023-01-02T08:11:23.549Z,101197.53
2023-01-02T08:13:51.999Z,101194.91
2023-01-02T08:16:22.933Z,101184.34
2023-01-02T08:18:56.343Z,101186.97
2023-01-02T08:21:26.648Z,101179.09
2023-01-02T08:23:55.071Z,101166.84
2023-01-02T08:26:25.004Z,101148.44
2023-01-02T08:28:53.466Z,101141.47
2023-01-02T08:31:23.312Z,101154.69
2023-01-02T08:33:51.833Z,101151.19
2023-01-02T08:36:20.209Z,101153.84
2023-01-02T08:38:49.006Z,101166.16
2023-01-02T08:41:30.728Z,101194.25
2023-01-02T08:43:59.191Z,101209.19
2023-01-02T08:46:28.343Z,101187.28
2023-01-02T08:48:56.810Z,101183.75
2023-01-02T08:51:25.634Z,101193.47
2023-01-02T08:53:54.425Z,101198.75
2023-01-02T08:56:25.628Z,101180.28
2023-01-02T08:59:02.935Z,101175.84
2023-01-02T09:01:32.826Z,101163.56
2023-01-02T09:04:06.230Z,101159.16
2023-01-02T09:06:40.142Z,101165.31
2023-01-02T09:09:12.126Z,101162.66
2023-01-02T09:11:46.279Z,101168.81
2023-01-02T09:14:14.719Z,101166.19
2023-01-02T09:16:43.649Z,101172.38
2023-01-02T09:19:12.027Z,101187.31
2023-01-02T09:21:40.508Z,101192.56
2023-01-02T09:24:10.050Z,101190.78
2023-01-02T09:26:39.388Z,101195.19
2023-01-02T09:29:07.846Z,101200.44
2023-01-02T09:31:36.388Z,101197.84
2023-01-02T09:34:04.825Z,101216.28
2023-01-02T09:36:33.624Z,101220.69
2023-01-02T09:39:03.708Z,101214.56
2023-01-02T09:41:34.573Z,101211.13
2023-01-02T09:44:20.350Z,101203.22
2023-01-02T09:47:04.827Z,101185.72
2023-01-02T09:49:38.086Z,101175.19
2023-01-02T09:52:09.008Z,101187.50
2023-01-02T09:54:37.435Z,101195.38
2023-01-02T09:57:24.833Z,101188.38
2023-01-02T10:00:17.498Z,101173.41
2023-01-02T10:02:48.650Z,101156.75
2023-01-02T10:05:34.104Z,101155.91
2023-01-02T10:08:32.570Z,101168.19
2023-01-02T10:11:04.053Z,101172.56
2023-01-02T10:16:34.588Z,101127.84
2023-01-02T10:19:08.697Z,101130.50
2023-01-02T10:21:40.630Z,101136.63
2023-01-02T10:24:37.655Z,101136.59
2023-01-02T10:27:12.855Z,101130.44
2023-01-02T10:29:53.960Z,101127.81
2023-01-02T10:32:24.436Z,101128.66
2023-01-02T10:35:07.712Z,101140.91
2023-01-02T10:37:37.088Z,101135.66
2023-01-02T10:40:07.327Z,101133.00
2023-01-02T10:42:35.828Z,101136.56
2023-01-02T10:45:05.109Z,101152.34
2023-01-02T10:47:40.695Z,101161.16
2023-01-02T10:50:16.839Z,101164.69
2023-01-02T10:52:51.361Z,101166.44
2023-01-02T10:55:34.139Z,101172.59
2023-01-02T10:58:24.452Z,101165.59
2023-01-02T11:01:05.189Z,101164.72
2023-01-02T11:03:33.785Z,101155.94
2023-01-02T11:06:27.010Z,101146.25
2023-01-02T11:09:06.285Z,101131.31
2023-01-02T11:11:34.904Z,101136.56
2023-01-02T11:14:12.353Z,101133.03
2023-01-02T11:16:43.004Z,101124.28
2023-01-02T11:19:27.430Z,101135.69
2023-01-02T11:21:58.431Z,101126.03
2023-01-02T11:24:29.315Z,101110.25
2023-01-02T11:27:01.809Z,101102.41
2023-01-02T11:29:34.094Z,101096.25
2023-01-02T11:32:05.038Z,101106.78
2023-01-02T11:34:40.182Z,101098.91
2023-01-02T11:37:14.716Z,101103.28
2023-01-02T11:39:43.932Z,101092.75
2023-01-02T11:42:46.249Z,101110.34
2023-01-02T11:45:19.707Z,101125.28
2023-01-02T11:47:52.467Z,101133.19
2023-01-02T11:50:32.594Z,101140.19
2023-01-02T11:53:13.625Z,101135.81
2023-01-02T11:55:57.304Z,101126.16
2023-01-02T11:58:43.838Z,101110.38
2023-01-02T12:01:36.823Z,101106.88
2023-01-02T12:04:05.677Z,101103.38
2023-01-02T12:06:42.906Z,101098.97
2023-01-02T12:09:23.457Z,101106.00
2023-01-02T12:12:10.110Z,101106.88
2023-01-02T12:15:08.506Z,101106.88
2023-01-02T12:17:48.986Z,101121.81
2023-01-02T12:20:42.262Z,101134.06
2023-01-02T12:23:44.194Z,101143.69
2023-01-02T12:26:49.974Z,101139.31
2023-01-02T12:29:46.344Z,101150.72
2023-01-02T12:32:25.661Z,101157.72
2023-01-02T12:35:18.742Z,101152.47
2023-01-02T12:37:57.793Z,101148.09
2023-01-02T12:40:53.726Z,101152.47
2023-01-02T12:43:30.758Z,101133.16
2023-01-02T12:46:07.576Z,101147.19
2023-01-02T12:48:56.828Z,101155.97
2023-01-02T12:51:53.993Z,101152.44
2023-01-02T12:54:22.279Z,101152.41
2023-01-02T12:57:28.834Z,101148.91
2023-01-02T13:00:02.919Z,101131.34
2023-01-02T13:03:14.521Z,101131.34
2023-01-02T13:05:52.665Z,101141.09
2023-01-02T13:08:28.195Z,101128.78
2023-01-02T13:11:00.668Z,101110.34
2023-01-02T13:13:34.941Z,101107.72
2023-01-02T13:16:22.622Z,101097.19
2023-01-02T13:19:17.464Z,101099.84
2023-01-02T13:22:00.185Z,101112.19
2023-01-02T13:24:29.629Z,101113.94
2023-01-02T13:27:00.012Z,101106.88
2023-01-02T13:29:41.471Z,101090.19
2023-01-02T13:32:15.235Z,101093.72
2023-01-02T13:34:54.606Z,101098.97
2023-01-02T13:37:29.602Z,101115.66
2023-01-02T13:40:03.975Z,101139.31
2023-01-02T13:42:54.903Z,101125.22
2023-01-02T13:45:26.123Z,101115.53
2023-01-02T13:47:57.974Z,101103.25
2023-01-02T13:50:34.913Z,101082.16
2023-01-02T13:53:23.349Z,101090.94
2023-01-02T13:55:57.098Z,101097.94
2023-01-02T13:58:47.387Z,101093.56
2023-01-02T14:01:24.909Z,101086.50
2023-01-02T14:04:14.285Z,101075.97
2023-01-02T14:06:54.018Z,101075.06
2023-01-02T14:09:27.543Z,101071.53
2023-01-02T14:12:02.755Z,101061.00
2023-01-02T14:14:52.468Z,101039.94
2023-01-02T14:17:38.267Z,101056.53
2023-01-02T14:20:18.985Z,101085.53
2023-01-02T14:22:57.943Z,101093.44
2023-01-02T14:25:27.231Z,101096.00
2023-01-02T14:28:07.577Z,101093.38
2023-01-02T14:30:42.286Z,101118.78
2023-01-02T14:33:11.413Z,101133.72
2023-01-02T14:35:54.919Z,101154.75
2023-01-02T14:38:29.091Z,101171.41
2023-01-02T14:41:20.341Z,101176.69
2023-01-02T14:43:49.963Z,101184.56
2023-01-02T14:46:22.795Z,101181.94
2023-01-02T14:49:25.413Z,101174.06
2023-01-02T14:52:08.043Z,101176.69
2023-01-02T14:55:19.565Z,101177.56
2023-01-02T14:57:50.860Z,101180.19
2023-01-02T15:00:25.907Z,101177.53
2023-01-02T15:03:08.826Z,101175.78
2023-01-02T15:05:48.986Z,101160.91
2023-01-02T15:08:22.552Z,101156.53
2023-01-02T15:11:21.629Z,101131.09
2023-01-02T15:14:04.019Z,101136.34
2023-01-02T15:16:57.432Z,101156.56
2023-01-02T15:19:34.725Z,101157.44
2023-01-02T15:22:22.749Z,101124.97
2023-01-02T15:24:53.952Z,101080.22
2023-01-02T15:27:28.168Z,101081.09
2023-01-02T15:29:59.264Z,101098.63
2023-01-02T15:32:32.978Z,101109.16
2023-01-02T15:35:24.030Z,101131.06
2023-01-02T15:37:52.778Z,101136.31
2023-01-02T15:40:33.306Z,101129.25
2023-01-02T15:43:26.285Z,101140.66
2023-01-02T15:45:55.076Z,101165.16
2023-01-02T15:48:28.524Z,101178.34
2023-01-02T15:50:59.563Z,101238.97
2023-01-02T15:53:33.824Z,101246.00
2023-01-02T15:56:02.468Z,101253.91
2023-01-02T15:58:32.833Z,101240.72
2023-01-02T16:01:14.815Z,101210.88
2023-01-02T16:04:01.344Z,101181.00
2023-01-02T16:06:35.292Z,101157.22
2023-01-02T16:09:06.719Z,101160.72
2023-01-02T16:11:45.914Z,101176.47
2023-01-02T16:14:42.428Z,101153.59
2023-01-02T16:17:37.146Z,101178.16
2023-01-02T16:20:17.314Z,101213.25
2023-01-02T16:22:54.271Z,101225.50
2023-01-02T16:25:45.796Z,101234.25
2023-01-02T16:28:34.736Z,101246.56
2023-01-02T16:31:12.924Z,101259.72
2023-01-02T16:33:42.965Z,101254.47
2023-01-02T16:36:17.070Z,101248.28
2023-01-02T16:38:52.680Z,101245.59
2023-01-02T16:41:37.548Z,101242.94
2023-01-02T16:44:15.511Z,101237.66
2023-01-02T16:46:46.402Z,101233.22
2023-01-02T16:49:18.585Z,101232.31
2023-01-02T16:51:48.683Z,101226.97
2023-01-02T16:54:18.749Z,101233.16
2023-01-02T16:56:48.345Z,101240.09
2023-01-02T16:59:16.825Z,101234.78
2023-01-02T17:01:45.336Z,101241.00
2023-01-02T17:04:14.428Z,101257.66
2023-01-02T17:06:42.904Z,101258.47
2023-01-02T17:09:11.372Z,101274.22
2023-01-02T17:12:00.401Z,101271.50
2023-01-02T17:14:31.209Z,101257.34
2023-01-02T17:17:00.649Z,101252.88
2023-01-02T17:19:29.429Z,101236.13
2023-01-02T17:22:00.347Z,101218.50
2023-01-02T17:24:28.697Z,101208.78
2023-01-02T17:26:57.158Z,101227.19
2023-01-02T17:29:25.590Z,101221.03
2023-01-02T17:31:53.956Z,101239.53
2023-01-02T17:34:22.419Z,101236.84
2023-01-02T17:36:50.856Z,101230.66
2023-01-02T17:39:19.235Z,101220.03
2023-01-02T17:41:47.701Z,101205.88
2023-01-02T17:44:16.185Z,101196.19
2023-01-02T17:49:33.237Z,101142.50
2023-01-02T17:52:01.758Z,101104.59
2023-01-02T17:54:30.270Z,101091.41
2023-01-02T17:56:58.752Z,101090.56
2023-01-02T17:59:27.329Z,101074.72
2023-01-02T18:01:56.016Z,101056.25
2023-01-02T18:04:24.825Z,101044.81
2023-01-02T18:06:53.204Z,101033.38
2023-01-02T18:09:21.627Z,101029.78
2023-01-02T18:11:49.949Z,101034.97
2023-01-02T18:14:25.629Z,101024.31
2023-01-02T18:16:57.983Z,101043.59
2023-01-02T18:19:29.140Z,101059.34
2023-01-02T18:21:57.498Z,101080.34
2023-01-02T18:24:33.642Z,101081.97
2023-01-02T18:27:33.629Z,101079.22
2023-01-02T18:30:18.583Z,101061.44
2023-01-02T18:32:47.697Z,101063.91
2023-01-02T18:35:56.016Z,101056.72
2023-01-02T18:38:32.375Z,101047.78
2023-01-02T18:41:00.995Z,101012.44
2023-01-02T18:43:36.684Z,100993.84
2023-01-02T18:47:02.324Z,100975.19
2023-01-02T18:49:24.668Z,100936.28
2023-01-02T18:52:23.385Z,100915.06
2023-01-02T18:55:00.370Z,100920.31
2023-01-02T18:57:35.238Z,100932.63
2023-01-02T19:00:18.604Z,100944.94
2023-01-02T19:03:12.700Z,100951.09
2023-01-02T19:05:46.089Z,100958.94
2023-01-02T19:08:19.334Z,100960.63
2023-01-02T19:10:54.440Z,100965.88
2023-01-02T19:13:28.996Z,100948.22
2023-01-02T19:16:07.223Z,100940.28
2023-01-02T19:18:41.318Z,100939.44
2023-01-02T19:21:31.874Z,100952.66
2023-01-02T19:24:03.386Z,100961.44
2023-01-02T19:26:37.322Z,100984.31
2023-01-02T19:29:13.297Z,101006.28
2023-01-02T19:31:46.118Z,101005.28
2023-01-02T19:34:40.841Z,100992.84
2023-01-02T19:37:12.196Z,101009.59
2023-01-02T19:39:49.752Z,101022.72
2023-01-02T19:42:21.466Z,101013.00
2023-01-02T19:44:55.065Z,101030.56
2023-01-02T19:47:28.835Z,101022.53
2023-01-02T19:49:58.048Z,101024.16
2023-01-02T19:52:28.169Z,101014.25
2023-01-02T19:54:56.649Z,101000.81
2023-01-02T19:57:25.965Z,100990.91
2023-01-02T19:59:59.873Z,100994.34
2023-01-02T20:02:29.398Z,100975.78
2023-01-02T20:04:58.275Z,100963.47
2023-01-02T20:07:27.807Z,100972.28
2023-01-02T20:09:56.190Z,100963.41
2023-01-02T20:12:41.500Z,100949.25
2023-01-02T20:15:18.476Z,100953.63
2023-01-02T20:17:47.878Z,100950.97
2023-01-02T20:20:21.950Z,100947.47
2023-01-02T20:22:52.463Z,100943.16
2023-01-02T20:25:25.031Z,100940.59
2023-01-02T20:27:55.203Z,100947.75
2023-01-02T20:30:25.224Z,100947.78
2023-01-02T20:32:54.755Z,100944.22
2023-01-02T20:35:24.167Z,100938.00
2023-01-02T20:37:52.970Z,100936.16
2023-01-02T20:40:21.466Z,100936.97
2023-01-02T20:42:49.791Z,100930.75
2023-01-02T20:45:18.312Z,100921.03
2023-01-02T20:47:46.690Z,100906.88
2023-01-02T20:50:15.066Z,100877.72
2023-01-02T20:52:43.396Z,100860.00
2023-01-02T20:55:12.210Z,100842.31
2023-01-02T20:57:40.587Z,100831.72
2023-01-02T21:00:12.813Z,100818.41
2023-01-02T21:02:41.288Z,100817.50
2023-01-02T21:05:10.388Z,100824.50
2023-01-02T21:07:38.765Z,100820.94
2023-01-02T21:10:07.976Z,100816.56
2023-01-02T21:12:54.714Z,100829.81
2023-01-02T21:15:41.827Z,100820.06
2023-01-02T21:18:10.916Z,100826.28
2023-01-02T21:20:44.384Z,100805.16
2023-01-02T21:23:15.253Z,100797.22
2023-01-02T21:25:43.864Z,100796.25
2023-01-02T21:28:13.481Z,100799.81
2023-01-02T21:30:44.506Z,100792.78
2023-01-02T21:33:14.908Z,100769.81
2023-01-02T21:35:44.177Z,100789.28
2023-01-02T21:38:13.161Z,100761.88
2023-01-02T21:40:41.958Z,100768.81
2023-01-02T21:43:11.530Z,100761.59
2023-01-02T21:45:40.038Z,100762.38
2023-01-02T21:48:09.209Z,100761.47
2023-01-02T21:50:37.711Z,100762.25
2023-01-02T21:53:06.915Z,100764.97
2023-01-02T21:55:35.298Z,100751.72
2023-01-02T21:58:18.909Z,100739.28
2023-01-02T22:00:47.540Z,100728.59
2023-01-02T22:03:16.210Z,100721.47
2023-01-02T22:05:44.848Z,100720.53
2023-01-02T22:08:13.334Z,100723.09
2023-01-02T22:10:41.706Z,100720.44
2023-01-02T22:13:10.166Z,100713.53
2023-01-02T22:15:38.659Z,100722.47
2023-01-02T22:18:07.230Z,100720.00
2023-01-02T22:20:35.729Z,100721.00
2023-01-02T22:23:04.244Z,100714.03
2023-01-02T22:25:33.230Z,100719.38
2023-01-02T22:28:01.958Z,100718.56
2023-01-02T22:30:34.452Z,100708.88
2023-01-02T22:33:04.203Z,100701.00
2023-01-02T22:35:33.847Z,100711.59
2023-01-02T22:38:02.461Z,100717.81
2023-01-02T22:40:30.819Z,100713.44
2023-01-02T22:43:02.932Z,100732.06
2023-01-02T22:45:42.776Z,100725.16
2023-01-02T22:48:38.173Z,100731.47
2023-01-02T22:51:11.928Z,100740.22
2023-01-02T22:53:41.789Z,100722.59
2023-01-02T22:56:17.991Z,100724.38
2023-01-02T22:58:47.632Z,100719.00
2023-01-02T23:01:34.571Z,100709.22
2023-01-02T23:04:03.043Z,100720.56
2023-01-02T23:06:31.751Z,100709.94
2023-01-02T23:09:00.234Z,100703.59
2023-01-02T23:11:28.708Z,100689.41
2023-01-02T23:13:57.159Z,100693.84
2023-01-02T23:16:44.276Z,100687.50
2023-01-02T23:19:16.412Z,100688.19
2023-01-02T23:21:47.912Z,100677.41
2023-01-02T23:24:22.683Z,100678.94
2023-01-02T23:26:53.322Z,100679.66
2023-01-02T23:29:23.769Z,100682.22
2023-01-02T23:31:53.722Z,100681.28
2023-01-02T23:34:29.055Z,100689.25
2023-01-02T23:36:59.857Z,100696.28
2023-01-02T23:39:31.753Z,100697.25
2023-01-02T23:42:00.723Z,100681.56
2023-01-02T23:44:29.147Z,100669.31
2023-01-02T23:46:58.029Z,100687.94
2023-01-02T23:49:26.502Z,100694.34
2023-01-02T23:51:54.979Z,100699.88
2023-01-02T23:54:23.768Z,100695.66
2023-01-02T23:56:53.148Z,100700.22
2023-01-02T23:59:24.051Z,100694.19
